Terminal Aerodrome Forecast
Issued by NWS Sterling, VA

Home | Current Version | Previous Version | Text Only | Print | Product List | Glossary On
Versions: 1 2 3 4 5 6 7 8 9 10 11 12 13 14 15 16 17 18
000
FTUS41 KLWX 290540
TAFMRB
TAF
KMRB 290540Z 2906/3006 VRB03KT P6SM FEW050 BKN090
     FM291000 VRB05KT 6SM BR SCT030 BKN090
     FM291300 09005KT P6SM BKN050
     FM291700 14007KT P6SM SCT040 BKN100
     FM292100 15007KT P6SM VCTS BKN040CB
     FM300100 VRB05KT P6SM SCT250=

USA.gov is the U.S. government's official web portal to all federal, state and local government web resources and services.